createdAt,value
2018-06-04T00:02:39.676Z,95231.7
2018-06-04T00:07:35.721Z,95247.2
2018-06-04T00:12:31.785Z,95244
2018-06-04T00:17:28.080Z,95249.7
2018-06-04T00:22:24.096Z,95243.2
2018-06-04T00:27:20.063Z,95228.7
2018-06-04T00:32:15.954Z,95230.8
2018-06-04T00:37:11.881Z,95219.7
2018-06-04T00:42:08.451Z,95228.1
2018-06-04T00:47:04.490Z,95216.2
2018-06-04T00:52:01.222Z,95205.9
2018-06-04T00:56:57.143Z,95204.4
2018-06-04T01:01:53.136Z,95194.4
2018-06-04T01:06:49.385Z,95202.6
2018-06-04T01:11:45.952Z,95200.9
2018-06-04T01:16:42.097Z,95203.5
2018-06-04T01:21:37.621Z,95203.8
2018-06-04T01:26:33.730Z,95202.6
2018-06-04T01:31:29.796Z,95198.2
2018-06-04T01:36:26.493Z,95194
2018-06-04T01:41:22.339Z,95182.9
2018-06-04T01:46:18.463Z,95184.8
2018-06-04T01:51:14.461Z,95183.1
2018-06-04T01:56:10.831Z,95179
2018-06-04T02:01:06.756Z,95177.9
2018-06-04T02:06:02.925Z,95182.9
2018-06-04T02:10:58.840Z,95188.6
2018-06-04T02:15:54.942Z,95191.8
2018-06-04T02:20:51.020Z,95186.8
2018-06-04T02:25:47.231Z,95182.4
2018-06-04T02:30:43.469Z,95185.7
2018-06-04T02:35:39.903Z,95190
2018-06-04T02:40:36.572Z,95193.3
2018-06-04T02:45:32.446Z,95200.9
2018-06-04T02:50:28.592Z,95199
2018-06-04T02:55:24.888Z,95198.4
2018-06-04T03:00:21.182Z,95204.7
2018-06-04T03:05:17.407Z,95203.5
2018-06-04T03:10:13.277Z,95205
2018-06-04T03:15:09.513Z,95209.6
2018-06-04T03:20:05.840Z,95209.4
2018-06-04T03:25:01.910Z,95215.9
2018-06-04T03:29:57.791Z,95220.4
2018-06-04T03:34:54.229Z,95224.2
2018-06-04T03:39:50.045Z,95233.7
2018-06-04T03:44:46.132Z,95229
2018-06-04T03:49:42.281Z,95233
2018-06-04T03:54:38.371Z,95228.5
2018-06-04T03:59:34.470Z,95237.1
2018-06-04T04:04:30.421Z,95239.9
2018-06-04T04:09:26.656Z,95245.3
2018-06-04T04:14:22.300Z,95242.4
2018-06-04T04:19:18.419Z,95240.1
2018-06-04T04:24:14.594Z,95234.1
2018-06-04T04:29:10.695Z,95227
2018-06-04T04:34:06.999Z,95162.2
2018-06-04T04:39:03.383Z,95237.9
2018-06-04T04:43:59.610Z,95231.4
2018-06-04T04:48:55.619Z,95229.3
2018-06-04T04:53:51.958Z,95228.6
2018-06-04T04:58:48.027Z,95229.8
2018-06-04T05:03:44.361Z,95231.9
2018-06-04T05:08:40.420Z,95230
2018-06-04T05:13:36.691Z,95231.5
2018-06-04T05:18:32.695Z,95230
2018-06-04T05:23:28.839Z,95227.5
2018-06-04T05:28:24.560Z,95242.3
2018-06-04T05:33:20.496Z,95236.8
2018-06-04T05:38:16.243Z,95248.3
2018-06-04T05:43:12.443Z,95242
2018-06-04T05:48:08.212Z,95238.2
2018-06-04T05:53:04.664Z,95234.1
2018-06-04T05:58:00.462Z,95228.9
2018-06-04T06:02:56.393Z,95239.5
2018-06-04T06:07:52.553Z,95237.6
2018-06-04T06:12:48.827Z,95231.7
2018-06-04T06:17:44.591Z,95221.8
2018-06-04T06:22:40.901Z,95218
2018-06-04T06:27:36.918Z,95215.9
2018-06-04T06:32:33.022Z,95219.7
2018-06-04T06:37:30.157Z,95214.5
2018-06-04T06:42:26.079Z,95206.9
2018-06-04T06:47:21.625Z,95203.6
2018-06-04T06:52:17.748Z,95198.7
2018-06-04T06:57:14.068Z,95199
2018-06-04T07:02:10.115Z,95191.6
2018-06-04T07:07:06.464Z,95197.3
2018-06-04T07:12:02.715Z,95188.9
2018-06-04T07:16:58.907Z,95185.8
2018-06-04T07:21:55.016Z,95180
2018-06-04T07:26:51.364Z,95265.3
2018-06-04T07:31:47.357Z,95176.9
2018-06-04T07:36:43.034Z,95169.8
2018-06-04T07:41:39.156Z,95192
2018-06-04T07:46:34.865Z,95169.2
2018-06-04T07:51:31.336Z,95201.1
2018-06-04T07:56:27.492Z,95162.9
2018-06-04T08:01:23.722Z,95157.7
2018-06-04T08:06:19.847Z,95155.9
2018-06-04T08:11:16.057Z,95151.8
2018-06-04T08:16:12.214Z,95145.4
2018-06-04T08:21:08.550Z,95149.4
2018-06-04T08:26:04.561Z,95155.8
2018-06-04T08:31:00.930Z,95135.2
2018-06-04T08:35:57.337Z,95145.9
2018-06-04T08:40:54.072Z,95144.4
2018-06-04T08:45:49.814Z,95131.8
2018-06-04T08:50:45.569Z,95125.4
2018-06-04T08:55:41.954Z,95123.4
2018-06-04T09:00:38.033Z,95037.6
2018-06-04T09:05:34.596Z,95121.6
2018-06-04T09:10:30.672Z,95124.5
2018-06-04T09:15:26.605Z,95113.6
2018-06-04T09:20:22.457Z,95110.8
2018-06-04T09:25:18.357Z,95180.4
2018-06-04T09:30:14.365Z,95088.1
2018-06-04T09:35:10.806Z,95106.9
2018-06-04T09:40:07.293Z,95089.1
2018-06-04T09:45:03.551Z,95070.5
2018-06-04T09:49:59.969Z,95069.6
2018-06-04T09:54:56.350Z,95071.8
2018-06-04T09:59:53.393Z,95005.9
2018-06-04T10:04:49.019Z,95008.2
2018-06-04T10:09:45.843Z,95079.3
2018-06-04T10:14:41.827Z,95078.9
2018-06-04T10:19:38.329Z,95069
2018-06-04T10:24:34.685Z,95053
2018-06-04T10:29:30.893Z,95057.5
2018-06-04T10:34:27.053Z,95058.9
2018-06-04T10:39:22.925Z,95180
2018-06-04T10:44:19.222Z,95055.1
2018-06-04T10:49:15.519Z,95048.9
2018-06-04T10:54:11.679Z,95042.8
2018-06-04T10:59:08.071Z,95037.5
2018-06-04T11:04:04.186Z,95035.2
2018-06-04T11:09:00.306Z,95033.1
2018-06-04T11:13:56.684Z,95031.2
2018-06-04T11:18:54.017Z,95023.1
2018-06-04T11:23:49.912Z,95011.9
2018-06-04T11:28:46.293Z,95009.1
2018-06-04T11:33:42.389Z,94228.2
2018-06-04T11:38:38.863Z,94988.7
2018-06-04T11:43:35.091Z,94994.1
2018-06-04T11:48:31.194Z,94985.8
2018-06-04T11:53:27.388Z,94972.3
2018-06-04T11:58:23.738Z,94962.8
2018-06-04T12:03:20.048Z,94924
2018-06-04T12:08:16.376Z,94945.7
2018-06-04T12:13:12.569Z,94938.7
2018-06-04T12:18:09.575Z,94925.2
2018-06-04T12:23:05.634Z,94928.6
2018-06-04T12:28:02.223Z,94921.2
2018-06-04T12:32:58.852Z,94900.2
2018-06-04T12:37:55.339Z,94899
2018-06-04T12:42:50.981Z,94896.1
2018-06-04T12:47:47.320Z,94807.4
2018-06-04T12:52:43.091Z,94869.1
2018-06-04T12:57:39.243Z,94862.4
2018-06-04T13:02:35.437Z,94864.6
2018-06-04T13:07:31.471Z,94858.1
2018-06-04T13:12:28.250Z,94855.7
2018-06-04T13:17:24.545Z,94777.5
2018-06-04T13:22:21.028Z,94861.4
2018-06-04T13:27:16.691Z,94854.7
2018-06-04T13:32:12.779Z,94856.4
2018-06-04T13:37:09.125Z,94845.3
2018-06-04T13:42:05.108Z,94847.4
2018-06-04T13:47:01.080Z,94845.5
2018-06-04T13:51:57.087Z,94850.4
2018-06-04T13:56:53.203Z,94848
2018-06-04T14:01:49.651Z,94204.1
2018-06-04T14:06:45.332Z,94840.2
2018-06-04T14:11:41.877Z,94832.2
2018-06-04T14:16:38.057Z,94828
2018-06-04T14:21:34.341Z,94827.6
2018-06-04T14:26:30.714Z,94831.6
2018-06-04T14:31:26.997Z,94837
2018-06-04T14:36:23.354Z,94835.7
2018-06-04T14:41:19.649Z,94836.5
2018-06-04T14:46:16.031Z,94823.3
2018-06-04T14:51:12.347Z,94821.2
2018-06-04T14:56:08.424Z,94819.6
2018-06-04T15:01:04.622Z,94813
2018-06-04T15:06:00.874Z,94804.4
2018-06-04T15:10:56.586Z,94757.9
2018-06-04T15:15:52.806Z,94779.6
2018-06-04T15:20:49.252Z,94765
2018-06-04T15:25:45.606Z,94756.5
2018-06-04T15:30:42.056Z,94754
2018-06-04T15:35:38.338Z,94749.4
2018-06-04T15:40:34.653Z,94745.6
2018-06-04T15:45:31.185Z,94765.1
2018-06-04T15:50:27.310Z,94789
2018-06-04T15:55:23.687Z,94751.7
2018-06-04T16:00:19.882Z,94802.5
2018-06-04T16:05:16.208Z,94607.7
2018-06-04T16:10:12.355Z,94808.6
2018-06-04T16:15:08.361Z,94806.6
2018-06-04T16:20:04.598Z,94797.9
2018-06-04T16:25:01.077Z,94796.3
2018-06-04T16:29:57.149Z,94799.6
2018-06-04T16:34:53.573Z,94799.3
2018-06-04T16:39:49.857Z,94802.5
2018-06-04T16:44:46.180Z,94803.8
2018-06-04T16:49:42.224Z,94811.6
2018-06-04T16:54:38.503Z,94816.8
2018-06-04T16:59:34.738Z,94826.4
2018-06-04T17:04:30.852Z,94839.5
2018-06-04T17:09:26.901Z,94855.1
2018-06-04T17:14:23.028Z,94844.3
2018-06-04T17:19:18.885Z,94849.3
2018-06-04T17:24:15.029Z,94859.1
2018-06-04T17:29:10.856Z,94862.9
2018-06-04T17:34:07.171Z,94880.6
2018-06-04T17:39:03.246Z,94874.4
2018-06-04T17:43:59.475Z,94881.8
2018-06-04T17:48:55.461Z,94879
2018-06-04T17:53:51.670Z,94834.8
2018-06-04T17:58:47.528Z,94890
2018-06-04T18:03:43.911Z,94958.7
2018-06-04T18:08:40.015Z,94897.7
2018-06-04T18:13:36.209Z,94904.4
2018-06-04T18:18:32.301Z,94908.8
2018-06-04T18:23:28.650Z,94919.3
2018-06-04T18:28:24.773Z,94924.2
2018-06-04T18:33:21.085Z,94847.5
2018-06-04T18:38:17.191Z,94934.5
2018-06-04T18:43:13.749Z,94943.6
2018-06-04T18:48:09.466Z,94876.1
2018-06-04T18:53:05.565Z,94878.5
2018-06-04T18:58:01.645Z,94897.5
2018-06-04T19:02:58.147Z,94947.8
2018-06-04T19:07:54.336Z,94895.1
2018-06-04T19:12:50.513Z,94913.9
2018-06-04T19:17:46.738Z,95090.9
2018-06-04T19:22:42.894Z,95002.5
2018-06-04T19:27:38.745Z,95001.5
2018-06-04T19:32:34.805Z,95013.3
2018-06-04T19:37:31.029Z,94998.4
2018-06-04T19:42:26.863Z,94998.9
2018-06-04T19:47:23.190Z,94987.9
2018-06-04T19:52:19.328Z,94951.7
2018-06-04T19:57:15.664Z,94961.1
2018-06-04T20:02:11.740Z,94967.5
2018-06-04T20:07:07.742Z,94966.5
2018-06-04T20:12:03.977Z,94979.3
2018-06-04T20:16:59.838Z,94972.6
2018-06-04T20:21:59.546Z,94965.2
2018-06-04T20:26:54.658Z,94970.2
2018-06-04T20:31:50.048Z,94967.8
2018-06-04T20:36:46.307Z,94955.2
2018-06-04T20:41:42.471Z,94962.7
2018-06-04T20:46:38.982Z,94961.8
2018-06-04T20:51:35.091Z,94965.5
2018-06-04T20:56:31.071Z,94955.9
2018-06-04T21:01:27.382Z,94961.7
2018-06-04T21:06:23.641Z,94957.9
2018-06-04T21:11:19.569Z,94954.6
2018-06-04T21:16:15.691Z,94933
2018-06-04T21:21:12.118Z,94927.8
2018-06-04T21:26:08.084Z,94920.2
2018-06-04T21:31:04.147Z,94925.3
2018-06-04T21:36:00.465Z,94931.8
2018-06-04T21:40:56.873Z,94928
2018-06-04T21:45:53.149Z,94929.6
2018-06-04T21:50:49.240Z,94937.7
2018-06-04T21:55:45.414Z,94931.1
2018-06-04T22:00:41.612Z,94930.8
2018-06-04T22:05:37.629Z,94929.4
2018-06-04T22:10:34.519Z,94836.5
2018-06-04T22:15:31.205Z,94918.3
2018-06-04T22:20:25.865Z,94910.1
2018-06-04T22:25:21.871Z,94901.9
2018-06-04T22:30:18.056Z,94897.9
2018-06-04T22:35:13.960Z,94903.4
2018-06-04T22:40:10.064Z,94898.7
2018-06-04T22:45:06.174Z,94883.8
2018-06-04T22:50:02.586Z,94880.5
2018-06-04T22:54:58.999Z,94878.3
2018-06-04T22:59:55.264Z,94877.2
2018-06-04T23:04:51.320Z,94879.5
2018-06-04T23:09:47.248Z,94880.3
2018-06-04T23:14:43.398Z,94434.4
2018-06-04T23:19:39.492Z,94868
2018-06-04T23:24:35.899Z,94862.3
2018-06-04T23:29:31.999Z,94864.4
2018-06-04T23:34:28.338Z,94863.7
2018-06-04T23:39:24.570Z,94829.6
2018-06-04T23:44:20.718Z,94864.9
2018-06-04T23:49:16.885Z,94863.2
2018-06-04T23:54:13.300Z,94859
2018-06-04T23:59:09.531Z,94869
